CheckWX is a tool to help pilots better visualize weather data.  It is not intended as a substitute for an official pre-flight weather briefing.

00:42:25 UTC

KCXP TAF
Carson Airport
Carson City, Nevada, USA
KCXP 262326Z 2700/2724 24011G22KT P6SM SCT060 BKN080 WS020/23040KT FM270400 22009KT P6SM VCSH SCT040 BKN060 FM271000 VRB05KT P6SM -SHRA BKN030 OVC040 FM271600 20012G20KT 4SM RA BKN020 OVC040 FM271900 21010G16KT P6SM VCSH FEW040 BKN060

Mar-27@
00:00 UTC

Mar-27 @ 00:00 UTC

Mar-27@
04:00 UTC

Mar-27 @ 04:00 UTC

KCXP 262326Z 2700/2724 24011G22KT P6SM SCT060 BKN080 WS020/23040KT
Wind
  • 240° at 11 KTS
  • {Gusting to 22 KTS
Cloud Levels
  • Scattered at 6,000' AGL
  • Broken at 8,000' AGL

Mar-27@
04:00 UTC

Mar-27 @ 04:00 UTC

Mar-27@
10:00 UTC

Mar-27 @ 10:00 UTC

FM270400 22009KT P6SM VCSH SCT040 BKN060

From

From Standard forecast or significant change

Wind
  • 220° at 9 KTS
Cloud Levels
  • Scattered at 4,000' AGL
  • Broken at 6,000' AGL

Mar-27@
10:00 UTC

Mar-27 @ 10:00 UTC

Mar-27@
16:00 UTC

Mar-27 @ 16:00 UTC

FM271000 VRB05KT P6SM -SHRA BKN030 OVC040

From

From Standard forecast or significant change

Wind
  • Variable at 5 KTS
Conditions
Light Rain
Cloud Levels
  • Broken at 3,000' AGL
  • Overcast at 4,000' AGL

Mar-27@
16:00 UTC

Mar-27 @ 16:00 UTC

Mar-27@
19:00 UTC

Mar-27 @ 19:00 UTC

FM271600 20012G20KT 4SM RA BKN020 OVC040

From

From Standard forecast or significant change

Wind
  • 200° at 12 KTS
  • {Gusting to 20 KTS
Conditions
Rain
Cloud Levels
  • Broken at 2,000' AGL
  • Overcast at 4,000' AGL

Mar-27@
19:00 UTC

Mar-27 @ 19:00 UTC

Mar-28@
00:00 UTC

Mar-28 @ 00:00 UTC

FM271900 21010G16KT P6SM VCSH FEW040 BKN060

From

From Standard forecast or significant change

Wind
  • 210° at 10 KTS
  • {Gusting to 16 KTS
Cloud Levels
  • Few at 4,000' AGL
  • Broken at 6,000' AGL